Airport View

Enter AWOS ICAO identifier for current METAR.

ex. KFNL

KGDB 041535Z AUTO 35003KT 10SM CLR 29/20 A3010 RMK AO2 T02900202

4 Jul 2020 16:00

Frequency: 120.1

Phone: 320-564-9388

Other Area AWOS: KMVE - KMML - KOVL - KRWF

TAF KRWF 041120Z 0412/0512 15003KT P6SM SKC FM041600 15008KT P6SM FEW050 FM050200 16004KT P6SM SCT200